createdAt,value
2022-10-10T00:00:33.582Z,9.4
2022-10-10T00:01:34.203Z,9.4
2022-10-10T00:02:34.766Z,9.4
2022-10-10T00:03:35.379Z,9.5
2022-10-10T00:04:35.993Z,9.5
2022-10-10T00:05:36.586Z,9.6
2022-10-10T00:06:37.180Z,9.5
2022-10-10T00:07:37.773Z,9.6
2022-10-10T00:08:38.366Z,9.7
2022-10-10T00:09:38.956Z,9.6
2022-10-10T00:10:39.559Z,9.6
2022-10-10T00:11:40.143Z,9.6
2022-10-10T00:12:40.735Z,9.5
2022-10-10T00:13:41.328Z,9.5
2022-10-10T00:14:41.921Z,9.6
2022-10-10T00:15:46.780Z,9.5
2022-10-10T00:16:44.096Z,9.5
2022-10-10T00:17:44.687Z,9.4
2022-10-10T00:18:45.282Z,9.4
2022-10-10T00:19:45.873Z,9.4
2022-10-10T00:20:46.467Z,9.4
2022-10-10T00:21:47.059Z,9.3
2022-10-10T00:22:47.895Z,9.4
2022-10-10T00:23:48.666Z,9.3
2022-10-10T00:24:49.259Z,9.4
2022-10-10T00:25:49.847Z,9.3
2022-10-10T00:26:50.442Z,9.3
2022-10-10T00:27:51.034Z,9.4
2022-10-10T00:28:51.627Z,9.4
2022-10-10T00:29:52.218Z,9.3
2022-10-10T00:30:52.811Z,9.4
2022-10-10T00:31:53.402Z,9.4
2022-10-10T00:32:53.994Z,9.5
2022-10-10T00:33:54.588Z,9.5
2022-10-10T00:34:55.180Z,9.5
2022-10-10T00:35:55.770Z,9.4
2022-10-10T00:36:56.362Z,9.5
2022-10-10T00:37:56.953Z,9.6
2022-10-10T00:38:57.549Z,9.5
2022-10-10T00:39:58.137Z,9.6
2022-10-10T00:40:58.733Z,9.7
2022-10-10T00:41:59.346Z,9.5
2022-10-10T00:42:59.937Z,9.5
2022-10-10T00:44:00.529Z,9.6
2022-10-10T00:45:01.124Z,9.5
2022-10-10T00:46:01.715Z,9.6
2022-10-10T00:47:02.308Z,9.5
2022-10-10T00:48:02.900Z,9.7
2022-10-10T00:49:03.543Z,9.6
2022-10-10T00:50:04.106Z,9.5
2022-10-10T00:51:04.700Z,9.6
2022-10-10T00:52:05.292Z,9.7
2022-10-10T00:53:05.883Z,9.7
2022-10-10T00:54:06.478Z,9.6
2022-10-10T00:55:07.070Z,9.5
2022-10-10T00:56:07.660Z,9.5
2022-10-10T00:57:08.253Z,9.5
2022-10-10T00:58:08.846Z,9.4
2022-10-10T00:59:09.441Z,9.4
2022-10-10T01:00:10.033Z,9.4
2022-10-10T01:01:10.696Z,9.4
2022-10-10T01:02:11.269Z,9.4
2022-10-10T01:03:11.864Z,9.4
2022-10-10T01:04:12.475Z,9.4
2022-10-10T01:05:13.067Z,9.4
2022-10-10T01:06:13.665Z,9.3
2022-10-10T01:07:14.254Z,9.3
2022-10-10T01:08:14.864Z,9.4
2022-10-10T01:09:15.439Z,9.4
2022-10-10T01:10:16.031Z,9.4
2022-10-10T01:11:16.626Z,9.3
2022-10-10T01:12:17.217Z,9.3
2022-10-10T01:13:17.808Z,9.4
2022-10-10T01:14:18.401Z,9.3
2022-10-10T01:15:18.995Z,9.4
2022-10-10T01:16:19.586Z,9.3
2022-10-10T01:17:20.180Z,9.3
2022-10-10T01:18:20.773Z,9.3
2022-10-10T01:19:21.365Z,9.2
2022-10-10T01:20:21.957Z,9.2
2022-10-10T01:21:22.551Z,9.2
2022-10-10T01:22:23.144Z,9.2
2022-10-10T01:23:23.736Z,9.2
2022-10-10T01:24:24.331Z,9.1
2022-10-10T01:25:24.923Z,9.1
2022-10-10T01:26:25.550Z,9.1
2022-10-10T01:27:30.976Z,9.1
2022-10-10T01:28:27.732Z,9.1
2022-10-10T01:29:28.845Z,9.2
2022-10-10T01:30:29.436Z,9.2
2022-10-10T01:31:30.031Z,9.1
2022-10-10T01:32:30.626Z,9.1
2022-10-10T01:33:31.236Z,9.2
2022-10-10T01:34:31.827Z,9.2
2022-10-10T01:35:32.420Z,9.2
2022-10-10T01:36:33.014Z,9.2
2022-10-10T01:37:33.604Z,9.4
2022-10-10T01:38:34.199Z,9.5
2022-10-10T01:39:34.793Z,9.4
2022-10-10T01:40:35.382Z,9.4
2022-10-10T01:41:35.976Z,9.4
2022-10-10T01:42:36.638Z,9.2
2022-10-10T01:43:37.229Z,9.3
2022-10-10T01:44:37.825Z,9.4
2022-10-10T01:45:38.419Z,9.4
2022-10-10T01:46:39.009Z,9.4
2022-10-10T01:47:39.605Z,9.4
2022-10-10T01:48:40.195Z,9.4
2022-10-10T01:49:40.790Z,9.4
2022-10-10T01:50:41.379Z,9.4
2022-10-10T01:51:41.973Z,9.6
2022-10-10T01:52:42.567Z,9.6
2022-10-10T01:53:43.160Z,9.5
2022-10-10T01:54:43.751Z,9.4
2022-10-10T01:55:44.345Z,9.4
2022-10-10T01:56:44.937Z,9.4
2022-10-10T01:57:45.531Z,9.5
2022-10-10T01:58:46.125Z,9.4
2022-10-10T01:59:46.715Z,9.3
2022-10-10T02:00:47.364Z,9.4
2022-10-10T02:01:47.901Z,9.3
2022-10-10T02:02:48.862Z,9.3
2022-10-10T02:03:49.692Z,9.3
2022-10-10T02:04:50.283Z,9.4
2022-10-10T02:05:50.878Z,9.4
2022-10-10T02:06:51.469Z,9.4
2022-10-10T02:07:52.065Z,9.4
2022-10-10T02:08:52.656Z,9.3
2022-10-10T02:09:53.249Z,9.2
2022-10-10T02:10:53.841Z,9.2
2022-10-10T02:11:54.435Z,9.3
2022-10-10T02:12:55.026Z,9.4
2022-10-10T02:13:55.618Z,9.4
2022-10-10T02:14:56.211Z,9.4
2022-10-10T02:15:56.804Z,9.3
2022-10-10T02:16:57.397Z,9.3
2022-10-10T02:17:57.988Z,9.2
2022-10-10T02:18:58.583Z,9.2
2022-10-10T02:19:59.178Z,9.3
2022-10-10T02:20:59.769Z,9.1
2022-10-10T02:22:00.363Z,9.1
2022-10-10T02:23:00.953Z,8.9
2022-10-10T02:24:01.549Z,9.0
2022-10-10T02:25:02.139Z,8.9
2022-10-10T02:26:02.732Z,8.9
2022-10-10T02:27:03.325Z,8.8
2022-10-10T02:28:04.029Z,8.7
2022-10-10T02:29:04.527Z,8.8
2022-10-10T02:30:05.141Z,8.7
2022-10-10T02:31:05.734Z,8.7
2022-10-10T02:32:06.324Z,8.7
2022-10-10T02:33:06.916Z,8.6
2022-10-10T02:34:07.509Z,8.7
2022-10-10T02:35:08.125Z,8.6
2022-10-10T02:36:08.716Z,8.5
2022-10-10T02:37:09.309Z,8.7
2022-10-10T02:38:09.901Z,9.0
2022-10-10T02:39:10.494Z,9.0
2022-10-10T02:40:11.088Z,9.0
2022-10-10T02:41:11.679Z,9.1
2022-10-10T02:42:12.275Z,9.1
2022-10-10T02:43:12.867Z,9.0
2022-10-10T02:44:13.461Z,9.0
2022-10-10T02:45:14.053Z,9.1
2022-10-10T02:46:14.669Z,9.1
2022-10-10T02:47:15.239Z,8.9
2022-10-10T02:48:15.835Z,8.9
2022-10-10T02:49:16.425Z,8.8
2022-10-10T02:50:17.020Z,8.9
2022-10-10T02:51:17.611Z,8.9
2022-10-10T02:52:18.208Z,8.9
2022-10-10T02:53:18.794Z,8.8
2022-10-10T02:54:19.389Z,8.8
2022-10-10T02:55:19.981Z,8.9
2022-10-10T02:56:20.575Z,8.8
2022-10-10T02:57:21.171Z,8.7
2022-10-10T02:58:21.779Z,8.9
2022-10-10T02:59:22.373Z,8.8
2022-10-10T03:00:22.967Z,8.9
2022-10-10T03:01:23.581Z,8.8
2022-10-10T03:02:24.154Z,8.8
2022-10-10T03:03:24.746Z,8.8
2022-10-10T03:04:25.340Z,8.7
2022-10-10T03:05:25.933Z,8.8
2022-10-10T03:06:26.525Z,8.7
2022-10-10T03:07:27.122Z,8.7
2022-10-10T03:08:27.709Z,8.7
2022-10-10T03:09:28.303Z,8.7
2022-10-10T03:10:28.895Z,8.6
2022-10-10T03:11:29.487Z,8.7
2022-10-10T03:12:30.082Z,8.6
2022-10-10T03:13:30.676Z,8.6
2022-10-10T03:14:31.266Z,8.6
2022-10-10T03:15:31.857Z,8.6
2022-10-10T03:16:32.451Z,8.5
2022-10-10T03:17:33.046Z,8.6
2022-10-10T03:18:33.639Z,8.5
2022-10-10T03:19:34.229Z,8.5
2022-10-10T03:20:34.824Z,8.6
2022-10-10T03:21:35.417Z,8.7
2022-10-10T03:22:36.012Z,8.6
2022-10-10T03:23:36.604Z,8.6
2022-10-10T03:24:37.196Z,8.6
2022-10-10T03:25:37.791Z,8.6
2022-10-10T03:26:38.384Z,8.6
2022-10-10T03:27:38.984Z,8.7
2022-10-10T03:28:39.611Z,8.6
2022-10-10T03:29:40.163Z,8.6
2022-10-10T03:30:40.758Z,8.7
2022-10-10T03:31:41.348Z,8.6
2022-10-10T03:32:41.941Z,8.6
2022-10-10T03:33:42.556Z,8.6
2022-10-10T03:34:43.147Z,8.6
2022-10-10T03:35:43.760Z,8.6
2022-10-10T03:36:44.353Z,8.6
2022-10-10T03:37:44.943Z,8.5
2022-10-10T03:38:45.539Z,8.6
2022-10-10T03:39:46.131Z,8.5
2022-10-10T03:40:46.720Z,8.5
2022-10-10T03:41:47.318Z,8.6
2022-10-10T03:42:48.182Z,8.6
2022-10-10T03:43:48.944Z,8.6
2022-10-10T03:44:49.536Z,8.6
2022-10-10T03:45:50.130Z,8.7
2022-10-10T03:46:50.723Z,8.7
2022-10-10T03:47:51.334Z,8.9
2022-10-10T03:48:51.936Z,8.9
2022-10-10T03:49:52.520Z,8.9
2022-10-10T03:50:53.112Z,9.0
2022-10-10T03:51:53.715Z,9.1
2022-10-10T03:52:54.300Z,9.2
2022-10-10T03:53:54.891Z,9.3
2022-10-10T03:54:55.489Z,9.3
2022-10-10T03:55:56.098Z,9.2
2022-10-10T03:56:56.692Z,9.3
2022-10-10T03:57:57.284Z,9.2
2022-10-10T03:58:57.880Z,9.2
2022-10-10T03:59:58.473Z,9.1
2022-10-10T04:00:59.107Z,9.2
2022-10-10T04:01:59.660Z,9.3
2022-10-10T04:03:00.274Z,9.4
2022-10-10T04:04:00.869Z,9.2
2022-10-10T04:05:01.460Z,9.2
2022-10-10T04:06:02.107Z,9.3
2022-10-10T04:07:02.646Z,9.3
2022-10-10T04:08:03.259Z,9.4
2022-10-10T04:09:03.853Z,9.3
2022-10-10T04:10:04.448Z,9.3
2022-10-10T04:11:05.037Z,9.3
2022-10-10T04:12:05.632Z,9.2
2022-10-10T04:13:06.222Z,9.1
2022-10-10T04:14:06.813Z,9.0
2022-10-10T04:15:07.410Z,8.9
2022-10-10T04:16:08.002Z,8.9
2022-10-10T04:17:08.589Z,9.1
2022-10-10T04:18:09.182Z,9.3
2022-10-10T04:19:09.778Z,9.3
2022-10-10T04:20:10.369Z,9.2
2022-10-10T04:21:10.960Z,9.2
2022-10-10T04:22:11.553Z,9.1
2022-10-10T04:23:12.147Z,9.1
2022-10-10T04:24:12.741Z,9.1
2022-10-10T04:25:13.333Z,9.1
2022-10-10T04:26:13.926Z,9.0
2022-10-10T04:27:14.518Z,9.0
2022-10-10T04:28:15.156Z,9.0
2022-10-10T04:29:15.702Z,9.0
2022-10-10T04:30:16.295Z,8.9
2022-10-10T04:31:16.904Z,8.9
2022-10-10T04:32:17.499Z,8.9
2022-10-10T04:33:18.089Z,8.7
2022-10-10T04:34:18.683Z,8.7
2022-10-10T04:35:19.278Z,8.6
2022-10-10T04:36:19.868Z,8.7
2022-10-10T04:37:20.459Z,8.5
2022-10-10T04:38:21.053Z,8.7
2022-10-10T04:39:21.647Z,8.7
2022-10-10T04:40:26.479Z,8.7
2022-10-10T04:41:23.823Z,8.6
2022-10-10T04:42:24.418Z,8.5
2022-10-10T04:43:25.010Z,8.4
2022-10-10T04:44:25.605Z,8.5
2022-10-10T04:45:26.215Z,8.5
2022-10-10T04:46:26.813Z,8.4
2022-10-10T04:47:27.399Z,8.4
2022-10-10T04:48:27.993Z,8.5
2022-10-10T04:49:28.584Z,8.5
2022-10-10T04:50:29.178Z,8.5
2022-10-10T04:51:29.769Z,8.4
2022-10-10T04:52:30.383Z,8.4
2022-10-10T04:53:30.976Z,8.4
2022-10-10T04:54:31.575Z,8.4
2022-10-10T04:55:32.161Z,8.4
2022-10-10T04:56:32.754Z,8.4
2022-10-10T04:57:33.346Z,8.4
2022-10-10T04:58:33.941Z,8.4
2022-10-10T04:59:34.534Z,8.4
2022-10-10T05:00:35.128Z,8.4
2022-10-10T05:01:35.738Z,8.2
2022-10-10T05:02:36.315Z,8.2
2022-10-10T05:03:36.926Z,8.2
2022-10-10T05:04:37.519Z,8.3
2022-10-10T05:05:38.112Z,8.2
2022-10-10T05:06:38.704Z,8.2
2022-10-10T05:07:39.302Z,8.2
2022-10-10T05:08:39.890Z,8.3
2022-10-10T05:09:40.482Z,8.3
2022-10-10T05:10:41.075Z,8.3
2022-10-10T05:11:41.668Z,8.2
2022-10-10T05:12:42.261Z,8.2
2022-10-10T05:13:42.858Z,8.2
2022-10-10T05:14:47.834Z,8.3
2022-10-10T05:15:45.032Z,8.3
2022-10-10T05:16:45.625Z,8.3
2022-10-10T05:17:46.219Z,8.5
2022-10-10T05:18:46.817Z,8.5
2022-10-10T05:19:47.404Z,8.5
2022-10-10T05:20:47.998Z,8.4
2022-10-10T05:21:48.611Z,8.6
2022-10-10T05:22:49.572Z,8.6
2022-10-10T05:23:50.282Z,8.5
2022-10-10T05:24:50.875Z,8.5
2022-10-10T05:25:51.469Z,8.4
2022-10-10T05:26:52.065Z,8.4
2022-10-10T05:27:52.657Z,8.5
2022-10-10T05:28:53.252Z,8.4
2022-10-10T05:29:54.169Z,8.3
2022-10-10T05:30:54.677Z,8.3
2022-10-10T05:31:55.272Z,8.2
2022-10-10T05:32:55.868Z,8.2
2022-10-10T05:33:56.465Z,8.4
2022-10-10T05:34:57.068Z,8.3
2022-10-10T05:35:57.678Z,8.3
2022-10-10T05:36:58.274Z,8.4
2022-10-10T05:37:58.875Z,8.4
2022-10-10T05:38:59.466Z,8.4
2022-10-10T05:40:00.067Z,8.2
2022-10-10T05:41:00.657Z,8.4
2022-10-10T05:42:01.256Z,8.4
2022-10-10T05:43:01.870Z,8.5
2022-10-10T05:44:02.466Z,8.4
2022-10-10T05:45:03.063Z,8.3
2022-10-10T05:46:03.659Z,8.3
2022-10-10T05:47:04.256Z,8.3
2022-10-10T05:48:04.871Z,8.4
2022-10-10T05:49:05.474Z,8.3
2022-10-10T05:50:06.062Z,8.4
2022-10-10T05:51:06.664Z,8.3
2022-10-10T05:52:07.279Z,8.3
2022-10-10T05:53:07.877Z,8.2
2022-10-10T05:54:08.474Z,8.2
2022-10-10T05:55:09.071Z,8.2
2022-10-10T05:56:09.669Z,8.4
2022-10-10T05:57:15.367Z,8.3
2022-10-10T05:58:11.854Z,8.3
2022-10-10T05:59:12.454Z,8.4
2022-10-10T06:00:13.046Z,8.3
2022-10-10T06:01:13.643Z,8.3
2022-10-10T06:02:14.287Z,8.2
2022-10-10T06:03:14.853Z,8.2
2022-10-10T06:04:15.449Z,8.2
2022-10-10T06:05:16.050Z,8.2
2022-10-10T06:06:16.668Z,8.2
2022-10-10T06:07:17.266Z,8.2
2022-10-10T06:08:17.865Z,8.2
2022-10-10T06:09:18.463Z,8.2
2022-10-10T06:10:19.064Z,8.3
2022-10-10T06:11:19.659Z,8.4
2022-10-10T06:12:20.259Z,8.4
2022-10-10T06:13:24.257Z,8.3
2022-10-10T06:14:22.459Z,8.4
2022-10-10T06:15:23.042Z,8.4
2022-10-10T06:16:23.638Z,8.4
2022-10-10T06:17:24.235Z,8.3
2022-10-10T06:18:24.831Z,8.4
2022-10-10T06:19:25.428Z,8.4
2022-10-10T06:20:26.024Z,8.2
2022-10-10T06:21:26.622Z,8.2
2022-10-10T06:22:27.219Z,8.4
2022-10-10T06:23:27.816Z,8.4
2022-10-10T06:24:28.507Z,8.6
2022-10-10T06:25:39.954Z,8.7
2022-10-10T06:26:30.576Z,8.7
2022-10-10T06:27:31.170Z,8.8
2022-10-10T06:28:31.823Z,9.0
2022-10-10T06:29:32.420Z,9.3
2022-10-10T06:30:33.017Z,10.1
2022-10-10T06:31:33.617Z,11.1
2022-10-10T06:32:34.220Z,12.0
2022-10-10T06:33:34.816Z,12.5
2022-10-10T06:34:35.415Z,12.7
2022-10-10T06:35:36.019Z,13.3
2022-10-10T06:36:36.634Z,13.6
2022-10-10T06:37:37.237Z,13.9
2022-10-10T06:38:37.851Z,14.2
2022-10-10T06:39:38.451Z,14.4
2022-10-10T06:40:39.048Z,14.6
2022-10-10T06:41:39.647Z,14.8
2022-10-10T06:42:40.244Z,13.9
2022-10-10T06:43:40.843Z,14.1
2022-10-10T06:44:41.442Z,14.4
2022-10-10T06:45:42.044Z,14.6
2022-10-10T06:46:42.638Z,14.4
2022-10-10T06:47:43.255Z,14.7
2022-10-10T06:48:43.851Z,15.5
2022-10-10T06:49:44.451Z,16.4
2022-10-10T06:50:45.049Z,16.8
2022-10-10T06:51:45.647Z,16.5
2022-10-10T06:52:46.247Z,16.2
2022-10-10T06:53:46.844Z,16.5
2022-10-10T06:54:47.442Z,16.8
2022-10-10T06:55:48.045Z,17.2
2022-10-10T06:56:48.637Z,17.5
2022-10-10T06:57:49.237Z,17.2
2022-10-10T06:58:49.835Z,17.5
2022-10-10T06:59:50.435Z,17.6
2022-10-10T07:00:51.053Z,17.6
2022-10-10T07:01:51.680Z,17.5
2022-10-10T07:02:52.757Z,17.1
2022-10-10T07:03:52.862Z,16.5
2022-10-10T07:04:53.464Z,17.0
2022-10-10T07:05:54.061Z,16.5
2022-10-10T07:06:54.658Z,17.0
2022-10-10T07:07:55.257Z,17.6
2022-10-10T07:08:55.904Z,18.0
2022-10-10T07:09:56.506Z,18.4
2022-10-10T07:10:57.105Z,18.3
2022-10-10T07:11:57.704Z,18.0
2022-10-10T07:12:58.304Z,17.7
2022-10-10T07:13:58.901Z,17.2
2022-10-10T07:14:59.502Z,17.4
2022-10-10T07:16:00.101Z,17.0
2022-10-10T07:17:00.718Z,17.0
2022-10-10T07:18:01.319Z,17.9
2022-10-10T07:19:01.919Z,17.9
2022-10-10T07:20:02.535Z,17.6
2022-10-10T07:21:03.141Z,17.5
2022-10-10T07:22:03.735Z,18.0
2022-10-10T07:23:04.331Z,18.0
2022-10-10T07:24:04.930Z,18.6
2022-10-10T07:25:05.527Z,18.2
2022-10-10T07:26:06.177Z,17.9
2022-10-10T07:27:08.900Z,17.6
2022-10-10T07:28:08.429Z,16.7
2022-10-10T07:29:08.986Z,16.4
2022-10-10T07:30:09.587Z,16.7
2022-10-10T07:31:10.186Z,16.7
2022-10-10T07:32:10.786Z,16.9
2022-10-10T07:33:11.386Z,16.4
2022-10-10T07:34:11.987Z,15.4
2022-10-10T07:35:12.585Z,14.8
2022-10-10T07:36:13.212Z,14.2
2022-10-10T07:37:13.831Z,14.2
2022-10-10T07:38:14.434Z,14.1
2022-10-10T07:39:17.141Z,13.7
2022-10-10T07:40:16.624Z,13.5
2022-10-10T07:41:17.223Z,13.2
2022-10-10T07:42:17.823Z,12.8
2022-10-10T07:43:18.422Z,12.6
2022-10-10T07:44:19.025Z,12.4
2022-10-10T07:45:19.645Z,12.3
2022-10-10T07:46:20.262Z,12.3
2022-10-10T07:47:20.894Z,12.2
2022-10-10T07:48:21.480Z,12.3
2022-10-10T07:49:22.080Z,12.4
2022-10-10T07:50:22.680Z,12.3
2022-10-10T07:51:23.281Z,12.2
2022-10-10T07:52:23.882Z,12.2
2022-10-10T07:53:24.551Z,12.2
2022-10-10T07:54:25.095Z,12.3
2022-10-10T07:55:25.694Z,12.3
2022-10-10T07:56:26.296Z,12.2
2022-10-10T07:57:26.894Z,12.2
2022-10-10T07:58:27.514Z,12.3
2022-10-10T07:59:28.115Z,12.3
2022-10-10T08:00:28.713Z,12.2
2022-10-10T08:01:29.344Z,12.3
2022-10-10T08:02:29.914Z,12.4
2022-10-10T08:03:30.514Z,12.5
2022-10-10T08:04:31.117Z,12.6
2022-10-10T08:05:31.718Z,12.7
2022-10-10T08:06:32.319Z,12.9
2022-10-10T08:07:32.921Z,12.8
2022-10-10T08:08:34.637Z,12.7
2022-10-10T08:09:35.116Z,12.8
2022-10-10T08:10:35.717Z,13.0
2022-10-10T08:11:36.316Z,12.9
2022-10-10T08:12:36.919Z,12.9
2022-10-10T08:13:37.516Z,12.9
2022-10-10T08:14:38.117Z,13.0
2022-10-10T08:15:38.722Z,12.9
2022-10-10T08:16:39.322Z,13.1
2022-10-10T08:17:39.921Z,13.2
2022-10-10T08:18:40.524Z,13.3
2022-10-10T08:19:41.141Z,13.5
2022-10-10T08:20:41.742Z,13.4
2022-10-10T08:21:42.343Z,13.3
2022-10-10T08:22:42.945Z,13.5
2022-10-10T08:23:43.545Z,13.5
2022-10-10T08:24:44.146Z,13.5
2022-10-10T08:25:44.746Z,13.6
2022-10-10T08:26:45.349Z,13.5
2022-10-10T08:27:45.967Z,13.6
2022-10-10T08:28:46.641Z,13.6
2022-10-10T08:29:47.238Z,13.8
2022-10-10T08:30:47.839Z,13.8
2022-10-10T08:31:48.443Z,13.7
2022-10-10T08:32:49.326Z,13.8
2022-10-10T08:33:50.133Z,13.6
2022-10-10T08:34:50.745Z,13.6
2022-10-10T08:35:51.335Z,13.8
2022-10-10T08:36:51.936Z,13.9
2022-10-10T08:37:52.540Z,14.0
2022-10-10T08:38:53.140Z,14.2
2022-10-10T08:39:53.741Z,14.3
2022-10-10T08:40:54.360Z,14.4
2022-10-10T08:41:54.960Z,14.4
2022-10-10T08:42:55.841Z,14.1
2022-10-10T08:43:56.595Z,13.9
2022-10-10T08:44:57.196Z,13.9
2022-10-10T08:45:57.801Z,14.0
2022-10-10T08:46:58.399Z,14.2
2022-10-10T08:47:59.023Z,14.4
2022-10-10T08:48:59.624Z,14.7
2022-10-10T08:50:00.226Z,14.8
2022-10-10T08:51:00.826Z,14.8
2022-10-10T08:52:01.447Z,14.8
2022-10-10T08:53:02.045Z,15.0
2022-10-10T08:54:02.647Z,14.9
2022-10-10T08:55:03.267Z,14.8
2022-10-10T08:56:03.871Z,14.9
2022-10-10T08:57:04.472Z,14.6
2022-10-10T08:58:05.074Z,14.5
2022-10-10T08:59:05.687Z,14.6
2022-10-10T09:00:06.276Z,14.7
2022-10-10T09:01:08.092Z,14.7
2022-10-10T09:02:19.443Z,14.9
2022-10-10T09:03:10.069Z,15.1
2022-10-10T09:04:10.670Z,15.2
2022-10-10T09:05:11.267Z,15.4
2022-10-10T09:06:11.868Z,15.4
2022-10-10T09:07:12.491Z,15.4
2022-10-10T09:08:13.093Z,15.6
2022-10-10T09:09:13.700Z,15.7
2022-10-10T09:10:14.295Z,15.9
2022-10-10T09:11:14.895Z,15.9
2022-10-10T09:12:15.495Z,15.9
2022-10-10T09:13:16.095Z,16.0
2022-10-10T09:14:16.695Z,16.2
2022-10-10T09:15:17.297Z,16.4
2022-10-10T09:16:17.901Z,16.4
2022-10-10T09:17:18.499Z,16.4
2022-10-10T09:18:19.110Z,16.6
2022-10-10T09:19:19.702Z,16.5
2022-10-10T09:20:20.313Z,16.5
2022-10-10T09:21:20.903Z,16.5
2022-10-10T09:22:21.527Z,16.8
2022-10-10T09:23:22.122Z,16.9
2022-10-10T09:24:22.728Z,17.0
2022-10-10T09:25:23.345Z,17.1
2022-10-10T09:26:23.955Z,17.1
2022-10-10T09:27:24.555Z,17.3
2022-10-10T09:28:25.227Z,17.4
2022-10-10T09:29:25.813Z,17.3
2022-10-10T09:30:26.413Z,17.4
2022-10-10T09:31:27.021Z,17.4
2022-10-10T09:32:27.646Z,17.4
2022-10-10T09:33:28.246Z,17.1
2022-10-10T09:34:29.282Z,17.2
2022-10-10T09:35:29.884Z,17.3
2022-10-10T09:36:30.483Z,17.2
2022-10-10T09:37:46.267Z,17.1
2022-10-10T09:38:32.678Z,17.0
2022-10-10T09:39:33.283Z,17.2
2022-10-10T09:40:33.904Z,17.1
2022-10-10T09:41:34.499Z,17.1
2022-10-10T09:42:35.103Z,17.2
2022-10-10T09:43:35.705Z,17.2
2022-10-10T09:44:36.321Z,17.3
2022-10-10T09:45:36.942Z,17.2
2022-10-10T09:46:37.545Z,17.2
2022-10-10T09:47:38.145Z,17.3
2022-10-10T09:48:38.752Z,17.1
2022-10-10T09:49:39.349Z,17.1
2022-10-10T09:50:43.107Z,17.1
2022-10-10T09:51:40.590Z,17.2
2022-10-10T09:52:41.193Z,17.1
2022-10-10T09:53:41.796Z,17.3
2022-10-10T09:54:42.475Z,17.2
2022-10-10T09:55:43.013Z,17.3
2022-10-10T09:56:43.616Z,17.2
2022-10-10T09:57:44.215Z,17.2
2022-10-10T09:58:44.816Z,17.3
2022-10-10T09:59:45.418Z,17.3
2022-10-10T10:00:46.057Z,17.3
2022-10-10T10:01:46.640Z,17.2
2022-10-10T10:02:47.243Z,17.3
2022-10-10T10:03:47.843Z,17.4
2022-10-10T10:04:48.444Z,17.3
2022-10-10T10:05:49.046Z,17.5
2022-10-10T10:06:49.647Z,17.3
2022-10-10T10:07:50.251Z,17.4
2022-10-10T10:08:50.861Z,17.4
2022-10-10T10:09:51.526Z,17.5
2022-10-10T10:10:52.071Z,17.5
2022-10-10T10:11:52.671Z,17.5
2022-10-10T10:12:53.272Z,17.3
2022-10-10T10:13:53.872Z,17.2
2022-10-10T10:14:54.473Z,17.3
2022-10-10T10:15:55.076Z,17.3
2022-10-10T10:16:55.680Z,17.4
2022-10-10T10:17:56.281Z,17.6
2022-10-10T10:18:56.885Z,17.5
2022-10-10T10:19:57.484Z,17.5
2022-10-10T10:20:58.373Z,17.6
2022-10-10T10:21:59.103Z,17.3
2022-10-10T10:22:59.705Z,17.5
2022-10-10T10:24:00.327Z,17.6
2022-10-10T10:25:00.929Z,17.5
2022-10-10T10:26:01.970Z,17.7
2022-10-10T10:27:02.716Z,17.7
2022-10-10T10:28:03.320Z,17.6
2022-10-10T10:29:03.943Z,17.7
2022-10-10T10:30:04.543Z,17.8
2022-10-10T10:31:05.145Z,17.7
2022-10-10T10:32:05.745Z,17.7
2022-10-10T10:33:06.348Z,17.8
2022-10-10T10:34:06.966Z,18.1
2022-10-10T10:35:07.567Z,18.0
2022-10-10T10:36:08.195Z,18.0
2022-10-10T10:37:13.956Z,17.9
2022-10-10T10:38:10.386Z,18.1
2022-10-10T10:39:10.989Z,18.2
2022-10-10T10:40:11.589Z,18.3
2022-10-10T10:41:12.209Z,18.1
2022-10-10T10:42:12.810Z,17.9
2022-10-10T10:43:13.414Z,17.9
2022-10-10T10:44:14.013Z,17.8
2022-10-10T10:45:14.614Z,17.9
2022-10-10T10:46:15.214Z,17.9
2022-10-10T10:47:15.818Z,17.8
2022-10-10T10:48:16.417Z,17.7
2022-10-10T10:49:17.999Z,17.9
2022-10-10T10:50:18.615Z,18.0
2022-10-10T10:51:19.215Z,18.1
2022-10-10T10:52:19.818Z,18.0
2022-10-10T10:53:20.419Z,18.0
2022-10-10T10:54:21.015Z,18.1
2022-10-10T10:55:21.617Z,18.1
2022-10-10T10:56:22.274Z,18.2
2022-10-10T10:57:32.886Z,18.3
2022-10-10T11:00:21.688Z,18.2
2022-10-10T11:01:20.189Z,18.3
2022-10-10T11:01:44.789Z,18.1
2022-10-10T11:02:54.374Z,18.0
2022-10-10T11:05:17.265Z,17.9
2022-10-10T11:05:18.127Z,17.9
2022-10-10T11:05:40.944Z,17.8
2022-10-10T11:06:35.432Z,17.9
2022-10-10T11:07:36.159Z,18.0
2022-10-10T11:08:36.752Z,18.0
2022-10-10T11:09:49.793Z,18.1
2022-10-10T11:10:38.832Z,18.1
2022-10-10T11:11:39.435Z,18.2
2022-10-10T11:12:40.055Z,18.1
2022-10-10T11:13:40.657Z,17.9
2022-10-10T11:14:41.257Z,18.1
2022-10-10T11:16:48.427Z,18.3
2022-10-10T11:17:44.978Z,18.4
2022-10-10T11:18:45.594Z,18.2
2022-10-10T11:19:46.204Z,18.3
2022-10-10T11:20:46.799Z,18.2
2022-10-10T11:21:47.401Z,18.2
2022-10-10T11:22:48.021Z,18.2
2022-10-10T11:23:48.623Z,18.3
2022-10-10T11:24:49.255Z,18.3
2022-10-10T11:25:49.850Z,18.2
2022-10-10T11:26:50.450Z,18.4
2022-10-10T11:27:51.052Z,18.3
2022-10-10T11:28:51.689Z,18.4
2022-10-10T11:29:52.357Z,18.4
2022-10-10T11:30:52.956Z,18.5
2022-10-10T11:31:53.556Z,18.5
2022-10-10T11:32:54.163Z,18.5
2022-10-10T11:33:57.266Z,18.6
2022-10-10T11:34:56.373Z,18.5
2022-10-10T11:35:57.258Z,18.4
2022-10-10T11:36:57.593Z,18.5
2022-10-10T11:37:58.197Z,18.5
2022-10-10T11:38:58.799Z,18.5
2022-10-10T11:39:59.400Z,18.5
2022-10-10T11:41:00.095Z,18.6
2022-10-10T11:42:00.619Z,18.6
2022-10-10T11:43:01.220Z,18.6
2022-10-10T11:44:01.821Z,18.7
2022-10-10T11:45:02.424Z,18.6
2022-10-10T11:46:03.461Z,18.8
2022-10-10T11:47:04.070Z,18.8
2022-10-10T11:48:04.673Z,18.8
2022-10-10T11:49:05.273Z,18.8
2022-10-10T11:50:05.887Z,18.7
2022-10-10T11:51:06.495Z,18.7
2022-10-10T11:52:31.961Z,18.8
2022-10-10T11:53:08.689Z,18.7
2022-10-10T11:54:09.292Z,18.8
2022-10-10T11:55:09.892Z,18.8
2022-10-10T11:56:10.493Z,18.9
2022-10-10T11:57:12.977Z,19.0
2022-10-10T11:58:12.691Z,19.0
2022-10-10T11:59:13.290Z,19.1
2022-10-10T12:00:13.893Z,19.0
2022-10-10T12:01:14.494Z,19.0
2022-10-10T12:02:15.099Z,18.9
2022-10-10T12:03:15.697Z,18.9
2022-10-10T12:04:16.299Z,18.8
2022-10-10T12:05:16.921Z,18.6
2022-10-10T12:06:17.522Z,18.7
2022-10-10T12:07:18.150Z,18.7
2022-10-10T12:08:18.757Z,18.7
2022-10-10T12:09:19.358Z,18.8
2022-10-10T12:10:19.952Z,18.7
2022-10-10T12:11:20.553Z,18.7
2022-10-10T12:12:21.158Z,18.6
2022-10-10T12:13:21.757Z,18.5
2022-10-10T12:14:22.361Z,18.6
2022-10-10T12:15:22.961Z,18.6
2022-10-10T12:16:28.198Z,18.6
2022-10-10T12:17:24.180Z,18.7
2022-10-10T12:18:24.782Z,18.7
2022-10-10T12:19:25.385Z,18.7
2022-10-10T12:20:25.986Z,18.8
2022-10-10T12:21:26.590Z,18.8
2022-10-10T12:22:27.191Z,18.9
2022-10-10T12:23:27.813Z,19.0
2022-10-10T12:24:28.413Z,19.0
2022-10-10T12:25:29.014Z,18.9
2022-10-10T12:26:29.613Z,19.0
2022-10-10T12:27:30.215Z,19.0
2022-10-10T12:28:30.887Z,19.2
2022-10-10T12:29:31.454Z,19.2
2022-10-10T12:30:32.052Z,19.1
2022-10-10T12:31:32.654Z,19.1
2022-10-10T12:32:33.256Z,19.3
2022-10-10T12:33:33.859Z,19.3
2022-10-10T12:34:34.457Z,19.6
2022-10-10T12:35:35.059Z,19.6
2022-10-10T12:36:35.657Z,19.3
2022-10-10T12:37:36.386Z,19.3
2022-10-10T12:38:36.956Z,19.4
2022-10-10T12:39:37.559Z,19.6
2022-10-10T12:40:38.177Z,19.6
2022-10-10T12:41:40.469Z,19.6
2022-10-10T12:42:39.394Z,19.5
2022-10-10T12:43:39.999Z,19.4
2022-10-10T12:44:40.598Z,19.4
2022-10-10T12:45:41.199Z,19.0
2022-10-10T12:46:41.820Z,18.9
2022-10-10T12:48:03.834Z,18.9
2022-10-10T12:48:44.065Z,19.0
2022-10-10T12:49:44.688Z,19.1
2022-10-10T12:50:45.288Z,19.2
2022-10-10T12:51:45.905Z,19.2
2022-10-10T12:52:46.510Z,19.0
2022-10-10T12:53:47.134Z,18.9
2022-10-10T12:54:47.711Z,18.9
2022-10-10T12:55:48.313Z,19.0
2022-10-10T12:56:48.935Z,18.9
2022-10-10T12:57:49.560Z,19.0
2022-10-10T12:58:50.161Z,18.8
2022-10-10T12:59:50.761Z,19.0
2022-10-10T13:00:51.362Z,19.0
2022-10-10T13:01:52.018Z,19.1
2022-10-10T13:02:52.622Z,19.1
2022-10-10T13:03:53.234Z,19.1
2022-10-10T13:04:53.824Z,19.1
2022-10-10T13:05:54.472Z,19.2
2022-10-10T13:06:55.063Z,19.2
2022-10-10T13:07:55.667Z,19.3
2022-10-10T13:08:56.268Z,19.5
2022-10-10T13:09:56.889Z,19.6
2022-10-10T13:10:57.490Z,19.6
2022-10-10T13:11:58.091Z,19.5
2022-10-10T13:12:58.693Z,19.4
2022-10-10T13:13:59.314Z,19.4
2022-10-10T13:14:59.913Z,19.3
2022-10-10T13:16:00.514Z,19.4
2022-10-10T13:17:01.120Z,19.4
2022-10-10T13:18:01.721Z,19.6
2022-10-10T13:19:02.324Z,19.6
2022-10-10T13:20:02.951Z,19.6
2022-10-10T13:21:04.085Z,19.5
2022-10-10T13:22:04.956Z,19.3
2022-10-10T13:23:05.558Z,19.3
2022-10-10T13:24:06.160Z,19.2
2022-10-10T13:25:06.764Z,19.2
2022-10-10T13:26:07.468Z,19.0
2022-10-10T13:27:08.012Z,19.0
2022-10-10T13:28:08.639Z,19.0
2022-10-10T13:29:09.226Z,19.0
2022-10-10T13:30:09.837Z,19.0
2022-10-10T13:31:10.480Z,19.0
2022-10-10T13:32:11.115Z,19.0
2022-10-10T13:33:11.718Z,19.1
2022-10-10T13:34:12.341Z,19.0
2022-10-10T13:35:12.976Z,19.0
2022-10-10T13:36:13.567Z,18.9
2022-10-10T13:37:14.170Z,19.1
2022-10-10T13:38:14.773Z,19.1
2022-10-10T13:39:15.373Z,19.1
2022-10-10T13:40:15.977Z,19.1
2022-10-10T13:41:16.584Z,19.0
2022-10-10T13:42:17.201Z,19.0